createdAt,value
2023-10-07T00:02:32.398Z,0.95
2023-10-07T00:05:42.833Z,0.80
2023-10-07T00:08:49.337Z,0.95
2023-10-07T00:11:56.068Z,1.13
2023-10-07T00:15:01.802Z,0.93
2023-10-07T00:18:13.178Z,0.80
2023-10-07T00:21:29.360Z,1.05
2023-10-07T00:24:44.976Z,0.88
2023-10-07T00:27:50.472Z,0.93
2023-10-07T00:30:57.210Z,1.00
2023-10-07T00:34:15.861Z,0.88
2023-10-07T00:37:22.158Z,1.00
2023-10-07T00:40:42.653Z,1.02
2023-10-07T00:43:48.113Z,1.05
2023-10-07T00:47:08.991Z,0.93
2023-10-07T00:50:17.309Z,1.88
2023-10-07T00:53:26.240Z,1.33
2023-10-07T00:56:34.632Z,1.25
2023-10-07T00:59:41.943Z,0.93
2023-10-07T01:02:47.493Z,1.23
2023-10-07T01:06:11.376Z,0.80
2023-10-07T01:09:23.797Z,1.23
2023-10-07T01:12:37.504Z,0.98
2023-10-07T01:15:42.860Z,1.00
2023-10-07T01:18:48.885Z,1.00
2023-10-07T01:22:00.367Z,1.00
2023-10-07T01:25:11.134Z,0.98
2023-10-07T01:28:16.952Z,1.05
2023-10-07T01:31:23.102Z,1.13
2023-10-07T01:34:31.655Z,1.40
2023-10-07T01:37:44.843Z,1.50
2023-10-07T01:41:08.626Z,1.30
2023-10-07T01:44:17.050Z,1.67
2023-10-07T01:47:31.410Z,1.20
2023-10-07T01:50:41.204Z,1.10
2023-10-07T01:53:46.648Z,1.15
2023-10-07T01:56:54.948Z,1.13
2023-10-07T02:00:08.791Z,0.98
2023-10-07T02:03:18.609Z,1.02
2023-10-07T02:06:25.721Z,1.23
2023-10-07T02:09:36.849Z,1.45
2023-10-07T02:12:48.030Z,1.20
2023-10-07T02:15:53.868Z,1.30
2023-10-07T02:19:01.633Z,1.55
2023-10-07T02:22:09.157Z,1.35
2023-10-07T02:25:22.643Z,2.08
2023-10-07T02:28:34.582Z,1.40
2023-10-07T02:31:46.198Z,1.70
2023-10-07T02:35:02.739Z,1.38
2023-10-07T02:38:11.150Z,1.30
2023-10-07T02:41:21.392Z,1.23
2023-10-07T02:44:30.887Z,1.20
2023-10-07T02:47:36.238Z,1.45
2023-10-07T02:50:44.151Z,1.10
2023-10-07T02:54:00.140Z,1.33
2023-10-07T02:57:09.802Z,1.17
2023-10-07T03:00:31.137Z,1.02
2023-10-07T03:03:40.066Z,1.30
2023-10-07T03:06:47.975Z,1.10
2023-10-07T03:10:06.575Z,1.58
2023-10-07T03:13:11.743Z,1.30
2023-10-07T03:16:36.988Z,1.17
2023-10-07T03:19:54.392Z,1.20
2023-10-07T03:23:17.615Z,2.53
2023-10-07T03:26:24.411Z,0.93
2023-10-07T03:29:32.607Z,1.15
2023-10-07T03:32:52.616Z,1.23
2023-10-07T03:36:31.321Z,1.17
2023-10-07T03:39:46.394Z,1.40
2023-10-07T03:42:51.548Z,1.10
2023-10-07T03:45:56.700Z,1.10
2023-10-07T03:49:08.285Z,1.45
2023-10-07T03:52:13.943Z,1.60
2023-10-07T03:55:19.376Z,1.40
2023-10-07T03:58:24.730Z,1.25
2023-10-07T04:01:30.181Z,1.45
2023-10-07T04:04:38.129Z,1.58
2023-10-07T04:07:45.258Z,1.60
2023-10-07T04:10:56.044Z,1.40
2023-10-07T04:14:08.531Z,1.23
2023-10-07T04:17:16.137Z,1.30
2023-10-07T04:20:26.862Z,1.25
2023-10-07T04:23:33.313Z,1.10
2023-10-07T04:26:40.828Z,1.52
2023-10-07T04:29:46.077Z,1.27
2023-10-07T04:32:54.596Z,1.83
2023-10-07T04:36:06.203Z,1.20
2023-10-07T04:39:19.832Z,1.95
2023-10-07T04:42:36.419Z,1.30
2023-10-07T04:45:51.005Z,1.77
2023-10-07T04:48:57.782Z,1.40
2023-10-07T04:52:07.598Z,1.60
2023-10-07T04:55:15.421Z,2.00
2023-10-07T04:58:26.236Z,1.48
2023-10-07T05:01:36.062Z,1.60
2023-10-07T05:04:43.294Z,1.48
2023-10-07T05:07:50.982Z,1.60
2023-10-07T05:11:06.112Z,1.60
2023-10-07T05:14:12.697Z,1.50
2023-10-07T05:17:18.265Z,1.50
2023-10-07T05:20:28.866Z,1.30
2023-10-07T05:23:38.401Z,1.60
2023-10-07T05:26:44.280Z,1.40
2023-10-07T05:29:49.372Z,1.40
2023-10-07T05:32:54.750Z,1.40
2023-10-07T05:36:05.390Z,1.02
2023-10-07T05:39:16.585Z,1.52
2023-10-07T05:42:21.756Z,1.90
2023-10-07T05:45:27.266Z,1.95
2023-10-07T05:48:32.357Z,1.50
2023-10-07T05:51:38.252Z,1.42
2023-10-07T05:54:46.221Z,0.93
2023-10-07T05:57:53.705Z,1.23
2023-10-07T06:00:59.981Z,1.27
2023-10-07T06:04:05.501Z,1.50
2023-10-07T06:07:10.659Z,1.75
2023-10-07T06:10:18.588Z,2.00
2023-10-07T06:13:24.140Z,1.67
2023-10-07T06:16:31.088Z,1.98
2023-10-07T06:19:38.094Z,1.95
2023-10-07T06:22:46.746Z,2.22
2023-10-07T06:25:55.178Z,2.25
2023-10-07T06:29:07.870Z,1.95
2023-10-07T06:32:29.933Z,2.10
2023-10-07T06:35:39.120Z,1.80
2023-10-07T06:38:47.945Z,1.60
2023-10-07T06:41:57.311Z,1.70
2023-10-07T06:45:11.883Z,2.20
2023-10-07T06:48:25.190Z,1.50
2023-10-07T06:51:32.580Z,1.52
2023-10-07T06:54:46.566Z,1.73
2023-10-07T06:58:00.408Z,1.40
2023-10-07T07:01:12.354Z,1.27
2023-10-07T07:04:20.630Z,2.17
2023-10-07T07:07:26.066Z,1.85
2023-10-07T07:10:34.036Z,2.25
2023-10-07T07:13:45.550Z,2.10
2023-10-07T07:16:51.126Z,1.77
2023-10-07T07:20:16.445Z,1.67
2023-10-07T07:23:23.272Z,1.63
2023-10-07T07:26:26.390Z,1.60
2023-10-07T07:29:35.761Z,2.20
2023-10-07T07:32:41.240Z,2.33
2023-10-07T07:35:52.808Z,1.63
2023-10-07T07:38:58.079Z,1.85
2023-10-07T07:42:17.181Z,1.70
2023-10-07T07:45:28.106Z,1.90
2023-10-07T07:48:37.944Z,1.70
2023-10-07T07:51:45.463Z,2.03
2023-10-07T07:54:50.479Z,2.50
2023-10-07T07:57:57.030Z,1.85
2023-10-07T08:01:07.011Z,3.75
2023-10-07T08:04:19.352Z,2.50
2023-10-07T08:07:26.545Z,2.10
2023-10-07T08:10:32.069Z,1.98
2023-10-07T08:13:37.531Z,2.38
2023-10-07T08:16:52.533Z,1.83
2023-10-07T08:19:59.653Z,2.08
2023-10-07T08:23:09.535Z,1.85
2023-10-07T08:26:24.117Z,2.10
2023-10-07T08:29:41.827Z,1.70
2023-10-07T08:32:49.992Z,2.43
2023-10-07T08:35:56.590Z,1.90
2023-10-07T08:39:06.820Z,2.40
2023-10-07T08:42:15.273Z,1.92
2023-10-07T08:45:24.975Z,2.00
2023-10-07T08:48:38.497Z,2.30
2023-10-07T08:51:44.222Z,2.28
2023-10-07T08:54:49.803Z,2.22
2023-10-07T08:57:55.215Z,2.25
2023-10-07T09:01:00.806Z,2.50
2023-10-07T09:04:10.770Z,2.40
2023-10-07T09:07:20.002Z,2.03
2023-10-07T09:10:29.974Z,2.72
2023-10-07T09:13:35.347Z,2.10
2023-10-07T09:16:44.083Z,2.33
2023-10-07T09:19:54.682Z,2.55
2023-10-07T09:23:02.733Z,1.92
2023-10-07T09:26:23.462Z,2.35
2023-10-07T09:29:30.661Z,2.28
2023-10-07T09:32:39.421Z,2.58
2023-10-07T09:35:48.650Z,2.00
2023-10-07T09:39:14.489Z,1.90
2023-10-07T09:42:38.012Z,2.30
2023-10-07T09:45:43.493Z,2.05
2023-10-07T09:48:48.662Z,1.55
2023-10-07T09:52:04.159Z,2.08
2023-10-07T09:55:23.326Z,1.65
2023-10-07T09:58:38.253Z,1.60
2023-10-07T10:01:55.629Z,1.38
2023-10-07T10:05:13.172Z,1.50
2023-10-07T10:08:30.617Z,2.20
2023-10-07T10:11:46.102Z,1.50
2023-10-07T10:15:20.730Z,1.60
2023-10-07T10:18:38.767Z,1.65
2023-10-07T10:21:45.196Z,2.17
2023-10-07T10:24:56.658Z,1.60
2023-10-07T10:28:04.180Z,1.50
2023-10-07T10:31:20.830Z,1.83
2023-10-07T10:34:28.080Z,1.85
2023-10-07T10:37:33.518Z,1.55
2023-10-07T10:40:41.537Z,2.00
2023-10-07T10:43:46.815Z,2.00
2023-10-07T10:46:52.826Z,1.95
2023-10-07T10:49:58.792Z,1.15
2023-10-07T10:53:06.733Z,1.48
2023-10-07T10:56:15.033Z,1.53
2023-10-07T10:59:20.838Z,1.50
2023-10-07T11:02:27.437Z,2.10
2023-10-07T11:05:32.801Z,1.40
2023-10-07T11:08:38.510Z,2.00
2023-10-07T11:11:49.683Z,2.20
2023-10-07T11:15:05.423Z,1.30
2023-10-07T11:18:14.026Z,1.77
2023-10-07T11:21:23.153Z,1.60
2023-10-07T11:24:29.170Z,1.85
2023-10-07T11:27:39.222Z,1.77
2023-10-07T11:30:48.496Z,1.75
2023-10-07T11:33:54.576Z,1.50
2023-10-07T11:37:10.571Z,1.55
2023-10-07T11:40:16.094Z,1.67
2023-10-07T11:43:24.023Z,1.80
2023-10-07T11:46:29.340Z,1.50
2023-10-07T11:49:36.241Z,1.75
2023-10-07T11:52:42.647Z,2.75
2023-10-07T11:55:48.127Z,2.03
2023-10-07T11:58:56.374Z,2.00
2023-10-07T12:02:01.601Z,2.10
2023-10-07T12:05:08.821Z,1.95
2023-10-07T12:08:14.875Z,1.88
2023-10-07T12:11:20.609Z,1.80
2023-10-07T12:14:29.770Z,2.13
2023-10-07T12:17:37.316Z,2.20
2023-10-07T12:20:42.612Z,2.10
2023-10-07T12:23:47.994Z,1.63
2023-10-07T12:26:53.698Z,2.22
2023-10-07T12:30:02.159Z,1.88
2023-10-07T12:33:17.324Z,2.10
2023-10-07T12:36:31.849Z,1.88
2023-10-07T12:39:40.916Z,1.83
2023-10-07T12:42:46.282Z,8.98
2023-10-07T12:45:54.162Z,1.92
2023-10-07T12:48:59.313Z,2.28
2023-10-07T12:52:06.324Z,1.25
2023-10-07T12:55:13.754Z,1.95
2023-10-07T12:58:20.175Z,1.80
2023-10-07T13:01:28.217Z,1.73
2023-10-07T13:04:36.446Z,1.90
2023-10-07T13:07:43.702Z,2.05
2023-10-07T13:10:49.443Z,2.00
2023-10-07T13:13:55.798Z,1.80
2023-10-07T13:17:03.778Z,1.55
2023-10-07T13:20:10.836Z,1.60
2023-10-07T13:23:15.987Z,1.58
2023-10-07T13:26:21.906Z,1.75
2023-10-07T13:29:27.585Z,2.30
2023-10-07T13:32:36.346Z,1.60
2023-10-07T13:35:41.461Z,1.40
2023-10-07T13:38:46.756Z,1.42
2023-10-07T13:41:53.634Z,1.42
2023-10-07T13:44:59.303Z,1.90
2023-10-07T13:48:09.254Z,2.03
2023-10-07T13:51:14.706Z,1.40
2023-10-07T13:54:40.285Z,1.80
2023-10-07T13:57:45.559Z,1.42
2023-10-07T14:00:53.421Z,1.88
2023-10-07T14:04:01.671Z,2.00
2023-10-07T14:07:06.960Z,1.75
2023-10-07T14:10:16.139Z,1.80
2023-10-07T14:13:24.814Z,2.10
2023-10-07T14:16:30.648Z,1.83
2023-10-07T14:19:38.710Z,1.67
2023-10-07T14:22:49.332Z,2.40
2023-10-07T14:25:56.473Z,1.63
2023-10-07T14:29:03.465Z,2.08
2023-10-07T14:32:11.106Z,2.30
2023-10-07T14:35:19.167Z,2.33
2023-10-07T14:38:24.563Z,2.35
2023-10-07T14:41:32.037Z,2.08
2023-10-07T14:44:37.497Z,4.00
2023-10-07T14:47:42.731Z,2.20
2023-10-07T14:50:50.656Z,2.20
2023-10-07T14:53:56.243Z,2.70
2023-10-07T14:57:05.172Z,2.35
2023-10-07T15:00:12.241Z,2.85
2023-10-07T15:03:18.730Z,2.55
2023-10-07T15:06:26.956Z,2.20
2023-10-07T15:09:32.202Z,3.42
2023-10-07T15:12:37.374Z,2.63
2023-10-07T15:15:42.525Z,2.63
2023-10-07T15:18:48.576Z,2.80
2023-10-07T15:21:58.545Z,2.65
2023-10-07T15:25:03.943Z,3.13
2023-10-07T15:28:12.093Z,3.00
2023-10-07T15:31:23.882Z,2.70
2023-10-07T15:34:29.086Z,2.78
2023-10-07T15:37:37.206Z,2.45
2023-10-07T15:40:43.061Z,2.78
2023-10-07T15:43:48.617Z,2.88
2023-10-07T15:46:53.848Z,2.28
2023-10-07T15:50:00.247Z,2.95
2023-10-07T15:53:09.056Z,3.05
2023-10-07T15:56:14.814Z,2.60
2023-10-07T15:59:20.537Z,3.05
2023-10-07T16:02:26.205Z,2.72
2023-10-07T16:05:35.762Z,2.25
2023-10-07T16:08:43.779Z,2.58
2023-10-07T16:11:49.508Z,2.47
2023-10-07T16:14:55.181Z,2.50
2023-10-07T16:18:01.529Z,3.00
2023-10-07T16:21:12.996Z,2.53
2023-10-07T16:24:23.542Z,1.80
2023-10-07T16:27:33.197Z,1.77
2023-10-07T16:30:38.648Z,1.55
2023-10-07T16:33:44.223Z,0.90
2023-10-07T16:36:49.392Z,0.90
2023-10-07T16:39:59.027Z,1.10
2023-10-07T16:43:05.500Z,1.42
2023-10-07T16:46:11.257Z,1.20
2023-10-07T16:49:16.539Z,0.90
2023-10-07T16:52:23.364Z,1.00
2023-10-07T16:55:31.167Z,1.17
2023-10-07T16:58:36.560Z,1.00
2023-10-07T17:01:45.298Z,1.20
2023-10-07T17:04:51.651Z,1.23
2023-10-07T17:08:01.526Z,1.52
2023-10-07T17:11:19.470Z,1.10
2023-10-07T17:14:25.888Z,1.25
2023-10-07T17:17:31.374Z,1.65
2023-10-07T17:20:37.017Z,1.10
2023-10-07T17:23:42.502Z,1.35
2023-10-07T17:26:50.549Z,1.50
2023-10-07T17:29:56.309Z,1.33
2023-10-07T17:33:01.474Z,1.33
2023-10-07T17:36:07.642Z,1.42
2023-10-07T17:39:13.316Z,1.45
2023-10-07T17:42:21.352Z,1.27
2023-10-07T17:45:26.783Z,1.52
2023-10-07T17:48:32.205Z,1.33
2023-10-07T17:51:37.313Z,1.23
2023-10-07T17:54:42.464Z,1.20
2023-10-07T17:57:59.290Z,2.25
2023-10-07T18:01:10.161Z,1.73
2023-10-07T18:04:15.644Z,1.50
2023-10-07T18:07:23.251Z,1.13
2023-10-07T18:10:30.587Z,1.60
2023-10-07T18:13:38.919Z,1.45
2023-10-07T18:19:49.952Z,1.58
2023-10-07T18:22:56.043Z,1.35
2023-10-07T18:26:01.679Z,1.40
2023-10-07T18:29:09.807Z,1.20
2023-10-07T18:32:15.334Z,1.27
2023-10-07T18:35:21.829Z,1.20
2023-10-07T18:38:27.736Z,1.00
2023-10-07T18:41:33.594Z,0.98
2023-10-07T18:44:41.616Z,1.00
2023-10-07T18:47:47.053Z,1.05
2023-10-07T18:50:52.607Z,0.88
2023-10-07T18:53:57.834Z,1.00
2023-10-07T18:57:03.577Z,0.80
2023-10-07T19:00:15.617Z,0.50
2023-10-07T19:03:21.392Z,0.80
2023-10-07T19:06:27.515Z,1.35
2023-10-07T19:09:33.286Z,0.60
2023-10-07T19:12:38.517Z,0.60
2023-10-07T19:15:50.755Z,0.55
2023-10-07T19:18:56.318Z,0.68
2023-10-07T19:22:03.197Z,0.30
2023-10-07T19:25:08.904Z,0.40
2023-10-07T19:28:14.151Z,0.80
2023-10-07T19:31:21.910Z,0.30
2023-10-07T19:34:27.246Z,0.50
2023-10-07T19:37:32.555Z,0.30
2023-10-07T19:40:38.041Z,0.57
2023-10-07T19:43:43.172Z,0.30
2023-10-07T19:46:51.165Z,0.40
2023-10-07T19:49:56.437Z,0.20
2023-10-07T19:53:02.011Z,0.35
2023-10-07T19:56:07.472Z,0.30
2023-10-07T19:59:13.324Z,0.30
2023-10-07T20:02:21.726Z,0.50
2023-10-07T20:05:27.163Z,0.50
2023-10-07T20:08:32.351Z,0.60
2023-10-07T20:11:37.665Z,0.60
2023-10-07T20:14:43.135Z,0.25
2023-10-07T20:17:51.546Z,0.30
2023-10-07T20:21:00.211Z,0.50
2023-10-07T20:24:06.306Z,0.60
2023-10-07T20:27:11.653Z,0.20
2023-10-07T20:30:17.401Z,0.30
2023-10-07T20:33:25.342Z,0.30
2023-10-07T20:36:30.845Z,0.45
2023-10-07T20:39:36.094Z,0.38
2023-10-07T20:42:43.158Z,0.28
2023-10-07T20:45:58.645Z,0.30
2023-10-07T20:49:07.411Z,0.45
2023-10-07T20:52:12.702Z,0.40
2023-10-07T20:55:17.963Z,0.47
2023-10-07T20:58:25.282Z,0.20
2023-10-07T21:01:30.742Z,0.20
2023-10-07T21:04:39.602Z,0.20
2023-10-07T21:07:44.829Z,0.28
2023-10-07T21:10:50.166Z,0.32
2023-10-07T21:13:59.709Z,0.30
2023-10-07T21:17:05.709Z,0.20
2023-10-07T21:20:14.865Z,0.20
2023-10-07T21:23:20.194Z,0.20
2023-10-07T21:26:26.930Z,0.20
2023-10-07T21:29:32.816Z,0.10
2023-10-07T21:32:38.175Z,0.20
2023-10-07T21:35:46.800Z,0.20
2023-10-07T21:41:57.554Z,0.20
2023-10-07T21:45:02.883Z,0.20
2023-10-07T21:48:09.378Z,0.20
2023-10-07T21:51:21.165Z,0.20
2023-10-07T21:54:26.794Z,0.20
2023-10-07T21:57:31.841Z,0.10
2023-10-07T22:00:42.317Z,0.20
2023-10-07T22:03:49.968Z,0.10
2023-10-07T22:06:58.261Z,0.30
2023-10-07T22:10:11.212Z,0.20
2023-10-07T22:13:18.983Z,0.10
2023-10-07T22:16:25.478Z,0.20
2023-10-07T22:19:30.799Z,0.17
2023-10-07T22:22:38.517Z,0.35
2023-10-07T22:25:47.868Z,0.10
2023-10-07T22:28:55.737Z,0.10
2023-10-07T22:32:05.393Z,0.20
2023-10-07T22:35:23.752Z,0.10
2023-10-07T22:38:43.033Z,0.10
2023-10-07T22:41:50.572Z,0.57
2023-10-07T22:44:57.814Z,0.30
2023-10-07T22:48:07.016Z,0.85
2023-10-07T22:51:24.686Z,0.20
2023-10-07T22:54:41.850Z,0.30
2023-10-07T22:57:48.679Z,0.30
2023-10-07T23:00:55.604Z,0.28
2023-10-07T23:04:15.368Z,0.22
2023-10-07T23:07:27.773Z,0.13
2023-10-07T23:10:41.625Z,0.20
2023-10-07T23:13:48.945Z,0.20
2023-10-07T23:16:54.725Z,0.30
2023-10-07T23:20:08.393Z,0.20
2023-10-07T23:23:18.465Z,1.10
2023-10-07T23:26:31.949Z,0.20
2023-10-07T23:29:45.480Z,0.20
2023-10-07T23:32:50.887Z,0.20
2023-10-07T23:35:57.041Z,0.10
2023-10-07T23:39:15.953Z,0.20
2023-10-07T23:42:26.712Z,0.10
2023-10-07T23:45:36.507Z,0.20
2023-10-07T23:48:48.182Z,0.20
2023-10-07T23:51:53.420Z,0.10
2023-10-07T23:55:00.797Z,0.10
2023-10-07T23:58:19.286Z,0.25
